createdAt,value
2018-01-30T00:00:24.495Z,26.93
2018-01-30T00:01:28.833Z,26.40
2018-01-30T00:02:33.023Z,23.23
2018-01-30T00:03:37.182Z,26.00
2018-01-30T00:04:41.379Z,19.53
2018-01-30T00:05:45.668Z,15.37
2018-01-30T00:06:50.139Z,28.33
2018-01-30T00:07:54.479Z,23.07
2018-01-30T00:08:58.954Z,18.10
2018-01-30T00:10:03.959Z,26.73
2018-01-30T00:11:08.195Z,17.20
2018-01-30T00:12:13.163Z,19.43
2018-01-30T00:13:17.713Z,14.53
2018-01-30T00:14:22.195Z,19.60
2018-01-30T00:15:26.532Z,21.90
2018-01-30T00:16:30.740Z,22.80
2018-01-30T00:17:34.951Z,16.70
2018-01-30T00:18:39.176Z,24.33
2018-01-30T00:19:43.394Z,33.00
2018-01-30T00:20:47.891Z,21.80
2018-01-30T00:21:52.275Z,22.60
2018-01-30T00:22:57.709Z,18.80
2018-01-30T00:24:01.967Z,19.57
2018-01-30T00:25:06.156Z,28.97
2018-01-30T00:26:10.374Z,20.90
2018-01-30T00:27:14.611Z,18.20
2018-01-30T00:28:19.989Z,28.63
2018-01-30T00:29:24.339Z,18.27
2018-01-30T00:30:28.608Z,29.60
2018-01-30T00:31:33.562Z,17.87
2018-01-30T00:32:37.783Z,23.30
2018-01-30T00:33:41.955Z,17.80
2018-01-30T00:34:47.347Z,23.73
2018-01-30T00:35:51.116Z,24.60
2018-01-30T00:36:55.424Z,18.30
2018-01-30T00:37:59.795Z,17.50
2018-01-30T00:39:04.030Z,30.40
2018-01-30T00:40:08.218Z,23.20
2018-01-30T00:41:12.403Z,13.13
2018-01-30T00:42:17.000Z,25.47
2018-01-30T00:43:21.885Z,25.77
2018-01-30T00:44:26.975Z,22.50
2018-01-30T00:45:31.164Z,19.73
2018-01-30T00:46:35.383Z,25.10
2018-01-30T00:47:39.574Z,22.10
2018-01-30T00:48:43.762Z,23.47
2018-01-30T00:49:49.354Z,18.67
2018-01-30T00:50:54.230Z,20.47
2018-01-30T00:51:59.208Z,22.13
2018-01-30T00:53:03.399Z,24.63
2018-01-30T00:54:07.580Z,23.50
2018-01-30T00:55:12.584Z,27.40
2018-01-30T00:56:16.879Z,19.53
2018-01-30T00:57:21.565Z,27.57
2018-01-30T00:58:25.817Z,37.07
2018-01-30T00:59:30.058Z,15.87
2018-01-30T01:00:34.647Z,21.77
2018-01-30T01:01:38.838Z,16.57
2018-01-30T01:02:43.035Z,18.97
2018-01-30T01:03:47.666Z,27.80
2018-01-30T01:04:52.064Z,17.53
2018-01-30T01:05:56.625Z,22.17
2018-01-30T01:07:00.841Z,21.97
2018-01-30T01:08:05.039Z,23.07
2018-01-30T01:09:09.231Z,29.03
2018-01-30T01:10:13.427Z,22.37
2018-01-30T01:11:18.255Z,24.73
2018-01-30T01:12:22.668Z,23.80
2018-01-30T01:13:26.976Z,29.20
2018-01-30T01:14:31.225Z,18.30
2018-01-30T01:15:36.188Z,25.57
2018-01-30T01:16:40.774Z,19.13
2018-01-30T01:17:45.170Z,17.30
2018-01-30T01:18:49.915Z,25.30
2018-01-30T01:19:54.247Z,26.90
2018-01-30T01:20:59.273Z,25.23
2018-01-30T01:22:03.519Z,20.23
2018-01-30T01:23:08.483Z,22.87
2018-01-30T01:24:12.667Z,21.47
2018-01-30T01:25:17.095Z,30.33
2018-01-30T01:26:21.710Z,18.63
2018-01-30T01:27:26.017Z,36.10
2018-01-30T01:28:30.955Z,19.33
2018-01-30T01:29:35.173Z,14.40
2018-01-30T01:30:39.371Z,22.90
2018-01-30T01:31:43.534Z,24.40
2018-01-30T01:32:49.087Z,35.03
2018-01-30T01:33:53.382Z,21.43
2018-01-30T01:34:58.107Z,27.30
2018-01-30T01:36:02.306Z,17.43
2018-01-30T01:37:06.481Z,25.60
2018-01-30T01:38:10.687Z,19.60
2018-01-30T01:39:14.877Z,16.63
2018-01-30T01:40:20.029Z,27.40
2018-01-30T01:41:24.746Z,32.10
2018-01-30T01:42:28.973Z,18.90
2018-01-30T01:43:33.246Z,21.77
2018-01-30T01:44:38.263Z,32.95
2018-01-30T01:45:42.839Z,32.40
2018-01-30T01:46:47.787Z,22.43
2018-01-30T01:47:52.684Z,16.43
2018-01-30T01:48:58.743Z,21.97
2018-01-30T01:50:02.924Z,22.77
2018-01-30T01:51:07.143Z,22.70
2018-01-30T01:52:12.103Z,18.52
2018-01-30T01:53:16.402Z,18.67
2018-01-30T01:54:20.863Z,16.80
2018-01-30T01:55:25.114Z,25.40
2018-01-30T01:56:29.360Z,18.20
2018-01-30T01:57:33.579Z,29.20
2018-01-30T01:58:37.779Z,26.73
2018-01-30T01:59:42.000Z,17.47
2018-01-30T02:00:46.362Z,17.40
2018-01-30T02:01:50.858Z,34.83
2018-01-30T02:02:55.305Z,22.33
2018-01-30T02:03:59.510Z,26.90
2018-01-30T02:05:03.734Z,33.53
2018-01-30T02:06:07.933Z,25.30
2018-01-30T02:07:12.144Z,16.85
2018-01-30T02:08:18.093Z,36.80
2018-01-30T02:09:22.500Z,19.27
2018-01-30T02:10:28.299Z,21.17
2018-01-30T02:11:32.500Z,17.90
2018-01-30T02:12:36.691Z,26.53
2018-01-30T02:13:41.294Z,14.60
2018-01-30T02:14:46.342Z,24.03
2018-01-30T02:15:51.157Z,27.30
2018-01-30T02:16:55.494Z,16.92
2018-01-30T02:17:59.760Z,33.30
2018-01-30T02:19:04.312Z,26.65
2018-01-30T02:20:08.552Z,19.47
2018-01-30T02:21:12.761Z,23.55
2018-01-30T02:22:18.084Z,20.53
2018-01-30T02:23:24.079Z,20.73
2018-01-30T02:24:28.552Z,12.53
2018-01-30T02:25:32.728Z,18.30
2018-01-30T02:26:36.896Z,17.87
2018-01-30T02:27:41.075Z,14.48
2018-01-30T02:28:45.285Z,17.13
2018-01-30T02:29:50.514Z,19.20
2018-01-30T02:30:55.046Z,30.27
2018-01-30T02:31:59.262Z,18.40
2018-01-30T02:33:03.479Z,24.27
2018-01-30T02:34:07.708Z,27.60
2018-01-30T02:35:12.275Z,20.63
2018-01-30T02:36:18.844Z,30.00
2018-01-30T02:37:23.144Z,24.10
2018-01-30T02:38:27.620Z,26.03
2018-01-30T02:39:32.596Z,17.83
2018-01-30T02:40:37.587Z,15.83
2018-01-30T02:41:41.810Z,24.57
2018-01-30T02:42:47.116Z,17.58
2018-01-30T02:43:52.047Z,21.67
2018-01-30T02:44:56.322Z,21.87
2018-01-30T02:46:00.564Z,21.25
2018-01-30T02:47:04.735Z,22.53
2018-01-30T02:48:09.675Z,31.73
2018-01-30T02:49:13.892Z,22.95
2018-01-30T02:50:19.931Z,25.27
2018-01-30T02:51:24.212Z,23.60
2018-01-30T02:52:28.553Z,21.10
2018-01-30T02:53:32.731Z,20.63
2018-01-30T02:54:36.979Z,25.33
2018-01-30T02:55:41.187Z,16.17
2018-01-30T02:56:46.584Z,20.33
2018-01-30T02:57:51.031Z,22.03
2018-01-30T02:58:55.322Z,18.83
2018-01-30T02:59:59.504Z,17.80
2018-01-30T03:01:03.687Z,30.77
2018-01-30T03:02:07.882Z,33.27
2018-01-30T03:03:12.880Z,28.20
2018-01-30T03:04:17.545Z,30.20
2018-01-30T03:05:21.980Z,28.63
2018-01-30T03:06:27.445Z,34.43
2018-01-30T03:07:31.678Z,34.33
2018-01-30T03:08:36.642Z,28.23
2018-01-30T03:09:40.840Z,29.90
2018-01-30T03:10:46.378Z,36.07
2018-01-30T03:11:51.739Z,16.73
2018-01-30T03:12:56.080Z,20.60
2018-01-30T03:14:00.363Z,22.57
2018-01-30T03:15:04.572Z,26.13
2018-01-30T03:16:08.777Z,15.60
2018-01-30T03:17:13.015Z,27.37
2018-01-30T03:18:17.706Z,20.53
2018-01-30T03:19:21.988Z,25.90
2018-01-30T03:20:27.071Z,16.30
2018-01-30T03:21:31.282Z,21.43
2018-01-30T03:22:35.534Z,26.83
2018-01-30T03:23:39.763Z,20.63
2018-01-30T03:24:44.752Z,25.90
2018-01-30T03:25:50.231Z,25.90
2018-01-30T03:26:55.393Z,34.67
2018-01-30T03:27:59.904Z,18.80
2018-01-30T03:29:04.864Z,19.20
2018-01-30T03:30:09.088Z,19.98
2018-01-30T03:31:13.297Z,20.08
2018-01-30T03:32:17.777Z,18.13
2018-01-30T03:33:22.285Z,16.43
2018-01-30T03:34:26.796Z,23.70
2018-01-30T03:35:31.056Z,13.23
2018-01-30T03:36:35.233Z,33.40
2018-01-30T03:37:40.248Z,18.87
2018-01-30T03:38:45.298Z,24.35
2018-01-30T03:39:49.964Z,33.83
2018-01-30T03:40:54.215Z,24.77
2018-01-30T03:41:59.670Z,13.40
2018-01-30T03:43:03.854Z,30.40
2018-01-30T03:44:08.812Z,24.90
2018-01-30T03:45:13.054Z,32.65
2018-01-30T03:46:18.144Z,20.77
2018-01-30T03:47:23.890Z,28.33
2018-01-30T03:48:28.276Z,20.62
2018-01-30T03:49:32.490Z,26.20
2018-01-30T03:50:36.686Z,27.00
2018-01-30T03:51:40.875Z,20.05
2018-01-30T03:52:45.222Z,22.13
2018-01-30T03:53:50.763Z,14.30
2018-01-30T03:54:55.516Z,16.73
2018-01-30T03:55:59.768Z,25.30
2018-01-30T03:57:03.982Z,28.45
2018-01-30T03:58:08.195Z,28.27
2018-01-30T03:59:12.763Z,27.83
2018-01-30T04:00:17.605Z,26.08
2018-01-30T04:01:22.057Z,20.73
2018-01-30T04:02:26.343Z,26.70
2018-01-30T04:03:30.590Z,37.42
2018-01-30T04:04:34.928Z,23.13
2018-01-30T04:05:39.119Z,23.07
2018-01-30T04:06:43.318Z,18.93
2018-01-30T04:07:48.020Z,26.13
2018-01-30T04:08:52.335Z,25.67
2018-01-30T04:09:56.821Z,23.70
2018-01-30T04:11:01.263Z,19.65
2018-01-30T04:12:05.449Z,26.50
2018-01-30T04:13:09.619Z,26.80
2018-01-30T04:14:13.845Z,29.63
2018-01-30T04:15:19.095Z,20.75
2018-01-30T04:16:23.590Z,21.33
2018-01-30T04:17:27.900Z,25.50
2018-01-30T04:18:32.095Z,32.55
2018-01-30T04:19:36.295Z,22.53
2018-01-30T04:20:40.526Z,25.27
2018-01-30T04:21:44.728Z,27.60
2018-01-30T04:22:50.146Z,22.17
2018-01-30T04:23:54.724Z,27.67
2018-01-30T04:24:59.782Z,22.35
2018-01-30T04:26:03.996Z,22.50
2018-01-30T04:27:08.174Z,27.97
2018-01-30T04:28:12.391Z,25.77
2018-01-30T04:29:17.996Z,25.87
2018-01-30T04:30:22.398Z,30.50
2018-01-30T04:31:27.194Z,26.17
2018-01-30T04:32:31.424Z,17.60
2018-01-30T04:33:35.609Z,26.43
2018-01-30T04:34:39.801Z,28.23
2018-01-30T04:35:44.828Z,20.90
2018-01-30T04:36:50.287Z,24.37
2018-01-30T04:37:54.597Z,23.97
2018-01-30T04:38:59.291Z,20.70
2018-01-30T04:40:04.361Z,20.05
2018-01-30T04:41:08.604Z,18.07
2018-01-30T04:42:12.774Z,21.50
2018-01-30T04:43:17.170Z,20.27
2018-01-30T04:44:21.899Z,31.83
2018-01-30T04:45:26.154Z,19.80
2018-01-30T04:46:30.400Z,19.60
2018-01-30T04:47:35.349Z,26.57
2018-01-30T04:48:39.518Z,30.25
2018-01-30T04:49:43.757Z,33.40
2018-01-30T04:50:49.412Z,21.15
2018-01-30T04:51:53.789Z,21.17
2018-01-30T04:52:58.281Z,27.10
2018-01-30T04:54:02.557Z,23.20
2018-01-30T04:55:07.533Z,30.13
2018-01-30T04:56:11.745Z,33.47
2018-01-30T04:57:16.579Z,23.27
2018-01-30T04:58:21.140Z,29.17
2018-01-30T04:59:26.237Z,25.17
2018-01-30T05:00:31.252Z,29.92
2018-01-30T05:01:35.527Z,38.50
2018-01-30T05:02:39.699Z,29.17
2018-01-30T05:03:43.937Z,26.00
2018-01-30T05:04:49.413Z,34.78
2018-01-30T05:05:53.675Z,24.97
2018-01-30T05:06:58.008Z,29.43
2018-01-30T05:08:02.256Z,26.12
2018-01-30T05:09:06.467Z,27.05
2018-01-30T05:10:10.666Z,28.15
2018-01-30T05:11:14.873Z,18.85
2018-01-30T05:12:19.809Z,31.70
2018-01-30T05:13:24.712Z,27.15
2018-01-30T05:14:28.947Z,24.05
2018-01-30T05:15:33.136Z,31.80
2018-01-30T05:16:37.350Z,25.97
2018-01-30T05:17:41.565Z,29.50
2018-01-30T05:18:46.382Z,26.55
2018-01-30T05:19:51.937Z,40.60
2018-01-30T05:20:56.238Z,21.73
2018-01-30T05:22:00.546Z,32.30
2018-01-30T05:23:04.749Z,39.93
2018-01-30T05:24:09.276Z,21.57
2018-01-30T05:25:13.490Z,26.25
2018-01-30T05:26:18.991Z,28.13
2018-01-30T05:27:23.829Z,19.87
2018-01-30T05:28:29.275Z,32.67
2018-01-30T05:29:34.276Z,38.90
2018-01-30T05:30:38.558Z,20.93
2018-01-30T05:31:42.763Z,26.90
2018-01-30T05:32:47.056Z,24.07
2018-01-30T05:33:52.200Z,34.42
2018-01-30T05:34:56.491Z,26.15
2018-01-30T05:36:00.766Z,23.77
2018-01-30T05:37:04.983Z,22.83
2018-01-30T05:38:09.380Z,42.20
2018-01-30T05:39:13.580Z,33.93
2018-01-30T05:40:19.958Z,22.57
2018-01-30T05:41:24.275Z,20.58
2018-01-30T05:42:28.613Z,29.83
2018-01-30T05:43:33.570Z,25.50
2018-01-30T05:44:37.786Z,26.05
2018-01-30T05:45:42.065Z,24.98
2018-01-30T05:46:47.680Z,27.00
2018-01-30T05:47:52.534Z,24.12
2018-01-30T05:48:56.855Z,40.63
2018-01-30T05:50:01.188Z,25.95
2018-01-30T05:51:05.406Z,36.72
2018-01-30T05:52:09.668Z,47.88
2018-01-30T05:53:13.886Z,27.37
2018-01-30T05:54:18.398Z,17.33
2018-01-30T05:55:23.105Z,35.27
2018-01-30T05:56:28.233Z,45.07
2018-01-30T05:57:32.979Z,30.73
2018-01-30T05:58:37.314Z,37.63
2018-01-30T05:59:41.538Z,38.00
2018-01-30T06:00:45.752Z,36.97
2018-01-30T06:01:50.339Z,31.20
2018-01-30T06:02:54.751Z,34.53
2018-01-30T06:03:59.793Z,36.07
2018-01-30T06:05:04.771Z,23.02
2018-01-30T06:06:09.012Z,21.15
2018-01-30T06:07:13.168Z,41.57
2018-01-30T06:08:17.725Z,21.33
2018-01-30T06:09:22.389Z,34.47
2018-01-30T06:10:26.900Z,33.55
2018-01-30T06:11:31.137Z,38.88
2018-01-30T06:12:35.321Z,29.35
2018-01-30T06:13:40.319Z,37.97
2018-01-30T06:14:44.524Z,27.87
2018-01-30T06:15:50.872Z,25.95
2018-01-30T06:16:55.212Z,27.33
2018-01-30T06:17:59.435Z,38.47
2018-01-30T06:19:03.674Z,32.57
2018-01-30T06:20:07.894Z,24.98
2018-01-30T06:21:12.077Z,44.63
2018-01-30T06:22:18.266Z,25.20
2018-01-30T06:23:23.021Z,31.52
2018-01-30T06:24:27.243Z,18.55
2018-01-30T06:25:31.517Z,32.63
2018-01-30T06:26:35.713Z,36.97
2018-01-30T06:27:40.321Z,36.22
2018-01-30T06:28:44.527Z,47.62
2018-01-30T06:29:49.355Z,34.03
2018-01-30T06:30:55.098Z,42.92
2018-01-30T06:31:59.374Z,28.95
2018-01-30T06:33:03.560Z,27.92
2018-01-30T06:34:07.775Z,33.88
2018-01-30T06:35:11.962Z,23.77
2018-01-30T06:36:16.760Z,65.20
2018-01-30T06:37:21.179Z,21.52
2018-01-30T06:38:26.473Z,35.53
2018-01-30T06:39:30.727Z,30.25
2018-01-30T06:40:35.667Z,46.70
2018-01-30T06:41:40.192Z,21.50
2018-01-30T06:42:44.367Z,30.83
2018-01-30T06:43:50.066Z,26.73
2018-01-30T06:44:55.561Z,35.47
2018-01-30T06:45:59.779Z,43.67
2018-01-30T06:47:04.763Z,22.20
2018-01-30T06:48:08.997Z,34.83
2018-01-30T06:49:13.176Z,27.53
2018-01-30T06:50:17.615Z,28.50
2018-01-30T06:51:22.796Z,36.25
2018-01-30T06:52:27.090Z,22.03
2018-01-30T06:53:32.063Z,31.83
2018-01-30T06:54:36.290Z,24.83
2018-01-30T06:55:40.645Z,29.50
2018-01-30T06:56:45.898Z,22.90
2018-01-30T06:57:50.420Z,27.98
2018-01-30T06:58:54.835Z,38.92
2018-01-30T06:59:59.202Z,31.13
2018-01-30T07:01:03.787Z,43.63
2018-01-30T07:02:07.988Z,38.43
2018-01-30T07:03:12.234Z,44.15
2018-01-30T07:04:16.573Z,28.23
2018-01-30T07:05:21.761Z,40.83
2018-01-30T07:06:26.373Z,41.67
2018-01-30T07:07:30.578Z,40.80
2018-01-30T07:08:34.822Z,36.72
2018-01-30T07:09:39.050Z,34.37
2018-01-30T07:10:44.057Z,48.63
2018-01-30T07:11:49.274Z,42.17
2018-01-30T07:12:55.356Z,27.90
2018-01-30T07:13:59.552Z,29.33
2018-01-30T07:15:03.769Z,44.13
2018-01-30T07:16:07.939Z,44.70
2018-01-30T07:17:12.175Z,37.97
2018-01-30T07:18:16.464Z,30.50
2018-01-30T07:19:20.722Z,22.10
2018-01-30T07:20:31.700Z,49.00
2018-01-30T07:21:35.867Z,31.77
2018-01-30T07:22:40.129Z,31.30
2018-01-30T07:23:44.309Z,29.13
2018-01-30T07:24:48.580Z,36.83
2018-01-30T07:25:52.799Z,33.00
2018-01-30T07:26:57.034Z,29.00
2018-01-30T07:28:01.331Z,33.57
2018-01-30T07:29:06.270Z,40.80
2018-01-30T07:30:10.502Z,33.50
2018-01-30T07:31:14.715Z,36.43
2018-01-30T07:32:19.152Z,37.93
2018-01-30T07:33:24.171Z,46.67
2018-01-30T07:34:28.737Z,41.10
2018-01-30T07:35:33.032Z,43.17
2018-01-30T07:36:37.290Z,30.23
2018-01-30T07:37:41.495Z,38.53
2018-01-30T07:38:45.741Z,49.40
2018-01-30T07:39:50.300Z,30.52
2018-01-30T07:40:54.580Z,35.40
2018-01-30T07:41:58.758Z,54.43
2018-01-30T07:43:02.944Z,41.40
2018-01-30T07:44:07.139Z,69.83
2018-01-30T07:45:11.381Z,47.63
2018-01-30T07:46:15.616Z,50.53
2018-01-30T07:47:21.202Z,37.23
2018-01-30T07:48:25.472Z,41.77
2018-01-30T07:49:30.022Z,41.93
2018-01-30T07:50:34.295Z,40.85
2018-01-30T07:51:38.495Z,48.20
2018-01-30T07:52:42.765Z,31.75
2018-01-30T07:53:49.050Z,51.60
2018-01-30T07:54:53.331Z,46.15
2018-01-30T07:55:58.457Z,54.87
2018-01-30T07:57:03.493Z,37.70
2018-01-30T07:58:08.482Z,59.63
2018-01-30T07:59:12.686Z,44.43
2018-01-30T08:00:17.666Z,52.63
2018-01-30T08:01:22.529Z,38.47
2018-01-30T08:02:27.327Z,45.87
2018-01-30T08:03:31.566Z,51.83
2018-01-30T08:04:35.780Z,40.65
2018-01-30T08:05:40.004Z,40.85
2018-01-30T08:06:44.184Z,45.60
2018-01-30T08:07:49.502Z,40.40
2018-01-30T08:08:54.089Z,52.10
2018-01-30T08:09:59.212Z,42.00
2018-01-30T08:11:04.915Z,46.20
2018-01-30T08:12:10.123Z,38.80
2018-01-30T08:13:15.126Z,43.35
2018-01-30T08:14:20.758Z,58.15
2018-01-30T08:15:25.142Z,44.65
2018-01-30T08:16:29.573Z,39.87
2018-01-30T08:17:33.853Z,41.63
2018-01-30T08:18:38.060Z,43.03
2018-01-30T08:19:42.279Z,47.15
2018-01-30T08:20:46.667Z,42.87
2018-01-30T08:21:51.873Z,45.33
2018-01-30T08:22:56.434Z,44.50
2018-01-30T08:24:00.799Z,51.78
2018-01-30T08:25:05.010Z,43.33
2018-01-30T08:26:09.273Z,40.25
2018-01-30T08:27:14.225Z,44.37
2018-01-30T08:28:19.050Z,46.50
2018-01-30T08:29:23.763Z,44.38
2018-01-30T08:30:28.275Z,49.47
2018-01-30T08:31:32.789Z,38.83
2018-01-30T08:32:37.000Z,55.53
2018-01-30T08:33:41.219Z,49.13
2018-01-30T08:34:45.436Z,45.38
2018-01-30T08:35:50.670Z,34.08
2018-01-30T08:36:54.972Z,48.13
2018-01-30T08:37:59.295Z,36.77
2018-01-30T08:39:03.653Z,42.60
2018-01-30T08:40:09.492Z,47.08
2018-01-30T08:41:13.680Z,29.27
2018-01-30T08:42:18.784Z,48.63
2018-01-30T08:43:23.921Z,38.33
2018-01-30T08:44:28.317Z,51.72
2018-01-30T08:45:33.315Z,44.30
2018-01-30T08:46:37.487Z,44.07
2018-01-30T08:47:41.695Z,34.10
2018-01-30T08:48:46.000Z,57.58
2018-01-30T08:49:50.502Z,45.97
2018-01-30T08:50:55.007Z,32.45
2018-01-30T08:51:59.271Z,44.23
2018-01-30T08:53:03.445Z,41.23
2018-01-30T08:54:08.390Z,38.43
2018-01-30T08:55:12.808Z,38.08
2018-01-30T08:56:17.592Z,43.40
2018-01-30T08:57:22.651Z,51.40
2018-01-30T08:58:27.653Z,28.60
2018-01-30T08:59:31.879Z,50.70
2018-01-30T09:00:36.926Z,41.20
2018-01-30T09:01:41.141Z,52.83
2018-01-30T09:02:45.316Z,41.37
2018-01-30T09:03:50.620Z,32.60
2018-01-30T09:04:54.902Z,35.07
2018-01-30T09:06:00.073Z,35.00
2018-01-30T09:07:04.251Z,38.70
2018-01-30T09:08:08.442Z,30.20
2018-01-30T09:09:13.786Z,41.57
2018-01-30T09:10:18.701Z,31.90
2018-01-30T09:11:23.023Z,41.55
2018-01-30T09:12:27.714Z,40.80
2018-01-30T09:13:32.686Z,43.93
2018-01-30T09:14:36.904Z,33.80
2018-01-30T09:15:41.150Z,33.72
2018-01-30T09:16:45.413Z,26.67
2018-01-30T09:17:49.805Z,30.10
2018-01-30T09:18:54.861Z,39.10
2018-01-30T09:19:59.116Z,32.73
2018-01-30T09:21:03.392Z,28.00
2018-01-30T09:22:07.575Z,26.43
2018-01-30T09:23:12.567Z,52.45
2018-01-30T09:24:17.487Z,35.60
2018-01-30T09:25:22.052Z,34.50
2018-01-30T09:26:26.611Z,30.67
2018-01-30T09:27:30.986Z,38.80
2018-01-30T09:28:35.935Z,37.97
2018-01-30T09:29:40.121Z,30.00
2018-01-30T09:30:45.181Z,32.80
2018-01-30T09:31:51.626Z,28.93
2018-01-30T09:32:56.592Z,33.47
2018-01-30T09:34:00.808Z,28.97
2018-01-30T09:35:05.059Z,32.13
2018-01-30T09:36:10.073Z,26.57
2018-01-30T09:37:14.285Z,29.27
2018-01-30T09:38:19.971Z,34.30
2018-01-30T09:39:24.282Z,25.67
2018-01-30T09:40:28.643Z,36.03
2018-01-30T09:41:32.909Z,21.73
2018-01-30T09:42:37.204Z,30.80
2018-01-30T09:43:42.143Z,31.50
2018-01-30T09:44:46.745Z,35.27
2018-01-30T09:45:52.417Z,35.57
2018-01-30T09:46:56.799Z,25.70
2018-01-30T09:48:01.163Z,35.97
2018-01-30T09:49:05.372Z,28.73
2018-01-30T09:50:09.567Z,23.10
2018-01-30T09:51:13.803Z,33.80
2018-01-30T09:52:18.229Z,26.83
2018-01-30T09:53:22.751Z,37.03
2018-01-30T09:54:28.329Z,25.67
2018-01-30T09:55:33.268Z,34.63
2018-01-30T09:56:38.249Z,25.87
2018-01-30T09:57:42.455Z,26.70
2018-01-30T09:58:47.189Z,26.20
2018-01-30T09:59:52.582Z,33.73
2018-01-30T10:00:56.830Z,26.83
2018-01-30T10:02:01.090Z,35.83
2018-01-30T10:03:06.109Z,36.70
2018-01-30T10:04:11.230Z,34.43
2018-01-30T10:05:15.421Z,34.13
2018-01-30T10:06:20.193Z,24.40
2018-01-30T10:07:24.620Z,29.17
2018-01-30T10:08:28.842Z,28.63
2018-01-30T10:09:33.024Z,29.47
2018-01-30T10:10:37.974Z,28.63
2018-01-30T10:11:42.273Z,35.10
2018-01-30T10:12:47.248Z,31.60
2018-01-30T10:13:51.775Z,32.17
2018-01-30T10:14:56.014Z,27.73
2018-01-30T10:16:01.186Z,36.13
2018-01-30T10:17:05.364Z,28.90
2018-01-30T10:18:10.449Z,36.83
2018-01-30T10:19:14.673Z,31.13
2018-01-30T10:20:20.154Z,34.37
2018-01-30T10:21:25.402Z,32.33
2018-01-30T10:22:29.649Z,41.03
2018-01-30T10:23:33.909Z,37.50
2018-01-30T10:24:38.531Z,35.27
2018-01-30T10:25:43.508Z,21.87
2018-01-30T10:26:48.328Z,39.63
2018-01-30T10:27:53.111Z,40.63
2018-01-30T10:28:57.717Z,33.63
2018-01-30T10:30:02.719Z,34.67
2018-01-30T10:31:06.938Z,35.53
2018-01-30T10:32:11.119Z,38.27
2018-01-30T10:33:15.312Z,31.00
2018-01-30T10:34:19.697Z,32.53
2018-01-30T10:35:24.042Z,30.33
2018-01-30T10:36:28.294Z,28.67
2018-01-30T10:37:33.315Z,29.43
2018-01-30T10:38:37.509Z,36.07
2018-01-30T10:39:41.697Z,26.60
2018-01-30T10:40:46.039Z,50.10
2018-01-30T10:41:50.646Z,28.30
2018-01-30T10:42:56.440Z,33.10
2018-01-30T10:44:01.415Z,28.80
2018-01-30T10:45:05.594Z,30.00
2018-01-30T10:46:09.786Z,35.87
2018-01-30T10:47:14.004Z,34.93
2018-01-30T10:48:19.187Z,31.03
2018-01-30T10:49:23.457Z,41.70
2018-01-30T10:50:28.549Z,30.50
2018-01-30T10:51:32.743Z,40.87
2018-01-30T10:52:36.968Z,33.13
2018-01-30T10:53:41.215Z,30.97
2018-01-30T10:54:46.566Z,48.67
2018-01-30T10:55:51.902Z,33.87
2018-01-30T10:56:56.205Z,35.30
2018-01-30T10:58:00.428Z,34.03
2018-01-30T10:59:04.642Z,35.30
2018-01-30T11:00:08.901Z,27.57
2018-01-30T11:01:13.085Z,31.33
2018-01-30T11:02:17.476Z,45.63
2018-01-30T11:03:22.233Z,38.20
2018-01-30T11:04:26.659Z,29.30
2018-01-30T11:05:30.858Z,33.63
2018-01-30T11:06:35.122Z,40.63
2018-01-30T11:07:40.087Z,29.57
2018-01-30T11:08:44.250Z,25.13
2018-01-30T11:09:49.541Z,27.00
2018-01-30T11:10:53.936Z,33.93
2018-01-30T11:11:58.731Z,35.50
2018-01-30T11:13:02.918Z,33.50
2018-01-30T11:14:07.891Z,32.53
2018-01-30T11:15:12.861Z,34.43
2018-01-30T11:16:17.800Z,35.40
2018-01-30T11:17:22.457Z,32.27
2018-01-30T11:18:27.050Z,25.53
2018-01-30T11:19:31.349Z,27.70
2018-01-30T11:20:35.620Z,22.13
2018-01-30T11:21:40.646Z,30.90
2018-01-30T11:22:44.910Z,24.67
2018-01-30T11:23:51.682Z,20.70
2018-01-30T11:24:55.940Z,29.20
2018-01-30T11:26:00.155Z,36.70
2018-01-30T11:27:04.365Z,16.53
2018-01-30T11:28:08.582Z,26.47
2018-01-30T11:29:12.783Z,23.13
2018-01-30T11:30:17.135Z,21.77
2018-01-30T11:31:22.253Z,26.03
2018-01-30T11:32:27.328Z,27.93
2018-01-30T11:33:31.498Z,28.47
2018-01-30T11:34:35.676Z,24.33
2018-01-30T11:35:39.875Z,39.57
2018-01-30T11:36:44.885Z,37.27
2018-01-30T11:37:49.434Z,24.33
2018-01-30T11:38:53.701Z,20.63
2018-01-30T11:39:57.916Z,31.13
2018-01-30T11:41:03.210Z,23.93
2018-01-30T11:42:07.402Z,25.43
2018-01-30T11:43:12.354Z,23.03
2018-01-30T11:44:17.499Z,29.43
2018-01-30T11:45:22.257Z,21.87
2018-01-30T11:46:26.538Z,17.20
2018-01-30T11:47:30.763Z,30.37
2018-01-30T11:48:34.999Z,21.43
2018-01-30T11:49:39.148Z,22.07
2018-01-30T11:50:43.361Z,24.30
2018-01-30T11:51:47.985Z,19.73
2018-01-30T11:52:52.993Z,20.80
2018-01-30T11:53:57.436Z,26.77
2018-01-30T11:55:01.637Z,24.77
2018-01-30T11:56:05.937Z,27.20
2018-01-30T11:57:10.131Z,24.13
2018-01-30T11:58:15.190Z,18.43
2018-01-30T11:59:20.703Z,19.07
2018-01-30T12:00:25.013Z,24.80
2018-01-30T12:01:30.260Z,16.30
2018-01-30T12:02:35.209Z,15.70
2018-01-30T12:03:39.445Z,20.53
2018-01-30T12:04:43.712Z,27.17
2018-01-30T12:05:48.589Z,17.93
2018-01-30T12:06:53.627Z,23.13
2018-01-30T12:07:58.057Z,21.10
2018-01-30T12:09:02.619Z,21.40
2018-01-30T12:10:07.690Z,17.80
2018-01-30T12:11:13.386Z,19.40
2018-01-30T12:12:18.110Z,24.03
2018-01-30T12:13:23.729Z,18.73
2018-01-30T12:14:28.795Z,14.50
2018-01-30T12:15:33.014Z,14.77
2018-01-30T12:16:37.198Z,20.30
2018-01-30T12:17:41.373Z,25.50
2018-01-30T12:18:45.742Z,14.90
2018-01-30T12:19:50.742Z,24.53
2018-01-30T12:20:55.047Z,21.03
2018-01-30T12:22:00.012Z,23.57
2018-01-30T12:23:04.202Z,19.70
2018-01-30T12:24:09.247Z,24.10
2018-01-30T12:25:13.490Z,16.30
2018-01-30T12:26:18.007Z,16.30
2018-01-30T12:27:22.794Z,18.53
2018-01-30T12:28:27.110Z,15.87
2018-01-30T12:29:31.405Z,19.77
2018-01-30T12:30:35.593Z,14.40
2018-01-30T12:31:39.838Z,17.67
2018-01-30T12:32:44.153Z,18.93
2018-01-30T12:33:48.683Z,22.67
2018-01-30T12:34:53.748Z,17.43
2018-01-30T12:35:58.206Z,18.23
2018-01-30T12:37:02.480Z,16.37
2018-01-30T12:38:06.653Z,20.33
2018-01-30T12:39:10.824Z,19.63
2018-01-30T12:40:15.940Z,10.90
2018-01-30T12:41:20.335Z,26.47
2018-01-30T12:42:24.701Z,17.23
2018-01-30T12:43:29.904Z,21.20
2018-01-30T12:44:34.109Z,16.10
2018-01-30T12:45:38.362Z,20.77
2018-01-30T12:46:43.337Z,21.53
2018-01-30T12:47:47.643Z,17.30
2018-01-30T12:48:51.957Z,16.20
2018-01-30T12:49:56.263Z,16.13
2018-01-30T12:51:00.498Z,16.03
2018-01-30T12:52:04.862Z,18.63
2018-01-30T12:53:09.078Z,13.53
2018-01-30T12:54:13.276Z,21.63
2018-01-30T12:55:18.430Z,18.63
2018-01-30T12:56:22.676Z,11.77
2018-01-30T12:57:27.086Z,16.23
2018-01-30T12:58:31.322Z,17.87
2018-01-30T12:59:35.505Z,15.43
2018-01-30T13:00:39.710Z,16.63
2018-01-30T13:01:43.887Z,14.20
2018-01-30T13:02:48.578Z,13.77
2018-01-30T13:03:53.810Z,14.60
2018-01-30T13:04:58.221Z,19.10
2018-01-30T13:06:02.418Z,17.63
2018-01-30T13:07:06.586Z,17.77
2018-01-30T13:08:10.753Z,18.27
2018-01-30T13:09:14.955Z,16.77
2018-01-30T13:10:20.236Z,12.47
2018-01-30T13:11:24.622Z,15.13
2018-01-30T13:12:29.601Z,19.70
2018-01-30T13:13:33.783Z,10.70
2018-01-30T13:14:38.108Z,21.50
2018-01-30T13:15:42.385Z,23.10
2018-01-30T13:16:46.562Z,21.93
2018-01-30T13:17:50.856Z,18.17
2018-01-30T13:18:55.122Z,18.23
2018-01-30T13:20:00.158Z,17.60
2018-01-30T13:21:05.441Z,9.53
2018-01-30T13:22:09.630Z,15.10
2018-01-30T13:23:13.834Z,9.57
2018-01-30T13:24:18.103Z,17.17
2018-01-30T13:25:22.545Z,14.20
2018-01-30T13:26:27.656Z,17.83
2018-01-30T13:27:31.873Z,15.53
2018-01-30T13:28:36.085Z,16.23
2018-01-30T13:29:41.038Z,15.67
2018-01-30T13:30:45.274Z,13.17
2018-01-30T13:31:49.867Z,13.87
2018-01-30T13:32:54.141Z,18.03
2018-01-30T13:33:58.329Z,20.13
2018-01-30T13:35:02.536Z,17.07
2018-01-30T13:36:06.745Z,17.60
2018-01-30T13:37:10.987Z,15.40
2018-01-30T13:38:15.205Z,13.87
2018-01-30T13:39:19.510Z,12.13
2018-01-30T13:40:23.748Z,16.13
2018-01-30T13:41:28.082Z,12.50
2018-01-30T13:42:32.401Z,10.07
2018-01-30T13:43:36.593Z,16.90
2018-01-30T13:44:41.541Z,10.83
2018-01-30T13:45:46.533Z,12.10
2018-01-30T13:46:51.571Z,11.80
2018-01-30T13:47:56.688Z,16.83
2018-01-30T13:49:01.660Z,13.20
2018-01-30T13:50:05.886Z,17.57
2018-01-30T13:51:10.061Z,11.87